sensor_id;sensor_type;location;lat;lon;timestamp;temperature;humidity
3202;DHT22;34843;48.744;8.958;2022-09-24T00:00:52;10.40;99.90
3202;DHT22;34843;48.744;8.958;2022-09-24T00:03:19;10.50;99.90
3202;DHT22;34843;48.744;8.958;2022-09-24T00:05:45;10.40;99.90
3202;DHT22;34843;48.744;8.958;2022-09-24T00:08:12;10.50;99.90
3202;DHT22;34843;48.744;8.958;2022-09-24T00:10:38;10.40;99.90
3202;DHT22;34843;48.744;8.958;2022-09-24T00:13:05;10.40;99.90
3202;DHT22;34843;48.744;8.958;2022-09-24T00:15:38;10.40;99.90
3202;DHT22;34843;48.744;8.958;2022-09-24T00:18:04;10.50;99.90
3202;DHT22;34843;48.744;8.958;2022-09-24T00:20:32;10.50;99.90
3202;DHT22;34843;48.744;8.958;2022-09-24T00:22:59;10.50;99.90
3202;DHT22;34843;48.744;8.958;2022-09-24T00:25:25;10.60;99.90
3202;DHT22;34843;48.744;8.958;2022-09-24T00:28:09;10.60;99.90
3202;DHT22;34843;48.744;8.958;2022-09-24T00:30:37;10.60;99.90
3202;DHT22;34843;48.744;8.958;2022-09-24T00:33:03;10.70;99.90
3202;DHT22;34843;48.744;8.958;2022-09-24T00:35:31;10.70;99.90
3202;DHT22;34843;48.744;8.958;2022-09-24T00:37:56;10.70;99.90
3202;DHT22;34843;48.744;8.958;2022-09-24T00:40:30;10.70;99.90
3202;DHT22;34843;48.744;8.958;2022-09-24T00:42:56;10.70;99.90
3202;DHT22;34843;48.744;8.958;2022-09-24T00:45:23;10.60;99.90
3202;DHT22;34843;48.744;8.958;2022-09-24T00:47:50;10.70;99.90
3202;DHT22;34843;48.744;8.958;2022-09-24T00:50:19;10.60;99.90
3202;DHT22;34843;48.744;8.958;2022-09-24T00:52:50;10.60;99.90
3202;DHT22;34843;48.744;8.958;2022-09-24T00:55:18;10.60;99.90
3202;DHT22;34843;48.744;8.958;2022-09-24T00:57:46;10.50;99.90
3202;DHT22;34843;48.744;8.958;2022-09-24T01:00:14;10.50;99.90
3202;DHT22;34843;48.744;8.958;2022-09-24T01:02:42;10.40;99.90
3202;DHT22;34843;48.744;8.958;2022-09-24T01:05:09;10.40;99.90
3202;DHT22;34843;48.744;8.958;2022-09-24T01:07:35;10.30;99.90
3202;DHT22;34843;48.744;8.958;2022-09-24T01:10:01;10.30;99.90
3202;DHT22;34843;48.744;8.958;2022-09-24T01:15:17;10.30;99.90
3202;DHT22;34843;48.744;8.958;2022-09-24T01:20:37;10.20;99.90
3202;DHT22;34843;48.744;8.958;2022-09-24T01:26:17;10.10;99.90
3202;DHT22;34843;48.744;8.958;2022-09-24T01:31:51;9.90;99.90
3202;DHT22;34843;48.744;8.958;2022-09-24T01:34:21;9.90;99.90
3202;DHT22;34843;48.744;8.958;2022-09-24T01:36:52;9.90;99.90
3202;DHT22;34843;48.744;8.958;2022-09-24T01:39:19;9.80;99.90
3202;DHT22;34843;48.744;8.958;2022-09-24T01:41:46;9.80;99.90
3202;DHT22;34843;48.744;8.958;2022-09-24T01:44:14;9.70;99.90
3202;DHT22;34843;48.744;8.958;2022-09-24T01:46:43;9.70;99.90
3202;DHT22;34843;48.744;8.958;2022-09-24T01:49:09;9.70;99.90
3202;DHT22;34843;48.744;8.958;2022-09-24T01:51:42;9.60;99.90
3202;DHT22;34843;48.744;8.958;2022-09-24T01:54:16;9.60;99.90
3202;DHT22;34843;48.744;8.958;2022-09-24T01:56:45;9.60;99.90
3202;DHT22;34843;48.744;8.958;2022-09-24T01:59:20;9.50;99.90
3202;DHT22;34843;48.744;8.958;2022-09-24T02:02:04;9.60;99.90
3202;DHT22;34843;48.744;8.958;2022-09-24T02:04:35;9.60;99.90
3202;DHT22;34843;48.744;8.958;2022-09-24T02:07:36;9.50;99.90
3202;DHT22;34843;48.744;8.958;2022-09-24T02:10:04;9.50;99.90
3202;DHT22;34843;48.744;8.958;2022-09-24T02:12:36;9.60;99.90
3202;DHT22;34843;48.744;8.958;2022-09-24T02:15:15;9.50;99.90
3202;DHT22;34843;48.744;8.958;2022-09-24T02:17:44;9.50;99.90
3202;DHT22;34843;48.744;8.958;2022-09-24T02:20:15;9.50;99.90
3202;DHT22;34843;48.744;8.958;2022-09-24T02:22:42;9.50;99.90
3202;DHT22;34843;48.744;8.958;2022-09-24T02:25:10;9.60;99.90
3202;DHT22;34843;48.744;8.958;2022-09-24T02:27:38;9.70;99.90
3202;DHT22;34843;48.744;8.958;2022-09-24T02:30:04;9.70;99.90
3202;DHT22;34843;48.744;8.958;2022-09-24T02:32:31;9.80;99.90
3202;DHT22;34843;48.744;8.958;2022-09-24T02:35:02;9.80;99.90
3202;DHT22;34843;48.744;8.958;2022-09-24T02:37:34;9.70;99.90
3202;DHT22;34843;48.744;8.958;2022-09-24T02:40:00;9.70;99.90
3202;DHT22;34843;48.744;8.958;2022-09-24T02:42:27;9.70;99.90
3202;DHT22;34843;48.744;8.958;2022-09-24T02:44:53;9.70;99.90
3202;DHT22;34843;48.744;8.958;2022-09-24T02:47:21;9.70;99.90
3202;DHT22;34843;48.744;8.958;2022-09-24T02:49:47;9.80;99.90
3202;DHT22;34843;48.744;8.958;2022-09-24T02:52:13;9.80;99.90
3202;DHT22;34843;48.744;8.958;2022-09-24T02:54:38;9.80;99.90
3202;DHT22;34843;48.744;8.958;2022-09-24T02:57:04;9.80;99.90
3202;DHT22;34843;48.744;8.958;2022-09-24T02:59:29;9.80;99.90
3202;DHT22;34843;48.744;8.958;2022-09-24T03:01:55;9.70;99.90
3202;DHT22;34843;48.744;8.958;2022-09-24T03:04:20;9.80;99.90
3202;DHT22;34843;48.744;8.958;2022-09-24T03:06:46;9.80;99.90
3202;DHT22;34843;48.744;8.958;2022-09-24T03:09:12;9.80;99.90
3202;DHT22;34843;48.744;8.958;2022-09-24T03:11:37;9.90;99.90
3202;DHT22;34843;48.744;8.958;2022-09-24T03:14:03;9.90;99.90
3202;DHT22;34843;48.744;8.958;2022-09-24T03:16:28;9.80;99.90
3202;DHT22;34843;48.744;8.958;2022-09-24T03:18:54;9.90;99.90
3202;DHT22;34843;48.744;8.958;2022-09-24T03:21:21;9.80;99.90
3202;DHT22;34843;48.744;8.958;2022-09-24T03:23:47;9.90;99.90
3202;DHT22;34843;48.744;8.958;2022-09-24T03:26:12;10.00;99.90
3202;DHT22;34843;48.744;8.958;2022-09-24T03:28:38;10.00;99.90
3202;DHT22;34843;48.744;8.958;2022-09-24T03:31:04;10.00;99.90
3202;DHT22;34843;48.744;8.958;2022-09-24T03:36:19;10.10;99.90
3202;DHT22;34843;48.744;8.958;2022-09-24T03:38:49;10.10;99.90
3202;DHT22;34843;48.744;8.958;2022-09-24T03:41:15;10.10;99.90
3202;DHT22;34843;48.744;8.958;2022-09-24T03:43:41;10.10;99.90
3202;DHT22;34843;48.744;8.958;2022-09-24T03:46:08;10.10;99.90
3202;DHT22;34843;48.744;8.958;2022-09-24T03:48:35;10.20;99.90
3202;DHT22;34843;48.744;8.958;2022-09-24T03:51:05;10.20;99.90
3202;DHT22;34843;48.744;8.958;2022-09-24T03:53:31;10.30;99.90
3202;DHT22;34843;48.744;8.958;2022-09-24T03:55:57;10.30;99.90
3202;DHT22;34843;48.744;8.958;2022-09-24T03:58:24;10.40;99.90
3202;DHT22;34843;48.744;8.958;2022-09-24T04:00:53;10.40;99.90
3202;DHT22;34843;48.744;8.958;2022-09-24T04:03:20;10.40;99.90
3202;DHT22;34843;48.744;8.958;2022-09-24T04:05:46;10.40;99.90
3202;DHT22;34843;48.744;8.958;2022-09-24T04:08:12;10.50;99.90
3202;DHT22;34843;48.744;8.958;2022-09-24T04:10:38;10.50;99.90
3202;DHT22;34843;48.744;8.958;2022-09-24T04:13:03;10.50;99.90
3202;DHT22;34843;48.744;8.958;2022-09-24T04:15:29;10.50;99.90
3202;DHT22;34843;48.744;8.958;2022-09-24T04:17:56;10.50;99.90
3202;DHT22;34843;48.744;8.958;2022-09-24T04:20:24;10.50;99.90
3202;DHT22;34843;48.744;8.958;2022-09-24T04:22:55;10.60;99.90
3202;DHT22;34843;48.744;8.958;2022-09-24T04:25:22;10.60;99.90
3202;DHT22;34843;48.744;8.958;2022-09-24T04:27:56;10.60;99.90
3202;DHT22;34843;48.744;8.958;2022-09-24T04:30:24;10.50;99.90
3202;DHT22;34843;48.744;8.958;2022-09-24T04:32:50;10.60;99.90
3202;DHT22;34843;48.744;8.958;2022-09-24T04:35:22;10.60;99.90
3202;DHT22;34843;48.744;8.958;2022-09-24T04:37:48;10.60;99.90
3202;DHT22;34843;48.744;8.958;2022-09-24T04:40:15;10.60;99.90
3202;DHT22;34843;48.744;8.958;2022-09-24T04:42:42;10.60;99.90
3202;DHT22;34843;48.744;8.958;2022-09-24T04:45:09;10.60;99.90
3202;DHT22;34843;48.744;8.958;2022-09-24T04:47:36;10.60;99.90
3202;DHT22;34843;48.744;8.958;2022-09-24T04:50:03;10.60;99.90
3202;DHT22;34843;48.744;8.958;2022-09-24T04:52:29;10.60;99.90
3202;DHT22;34843;48.744;8.958;2022-09-24T04:54:57;10.60;99.90
3202;DHT22;34843;48.744;8.958;2022-09-24T04:57:23;10.60;99.90
3202;DHT22;34843;48.744;8.958;2022-09-24T04:59:48;10.60;99.90
3202;DHT22;34843;48.744;8.958;2022-09-24T05:02:14;10.70;99.90
3202;DHT22;34843;48.744;8.958;2022-09-24T05:04:41;10.70;99.90
3202;DHT22;34843;48.744;8.958;2022-09-24T05:07:08;10.70;99.90
3202;DHT22;34843;48.744;8.958;2022-09-24T05:09:34;10.70;99.90
3202;DHT22;34843;48.744;8.958;2022-09-24T05:12:00;10.70;99.90
3202;DHT22;34843;48.744;8.958;2022-09-24T05:14:25;10.70;99.90
3202;DHT22;34843;48.744;8.958;2022-09-24T05:16:51;10.70;99.90
3202;DHT22;34843;48.744;8.958;2022-09-24T05:19:17;10.70;99.90
3202;DHT22;34843;48.744;8.958;2022-09-24T05:21:42;10.70;99.90
3202;DHT22;34843;48.744;8.958;2022-09-24T05:24:08;10.70;99.90
3202;DHT22;34843;48.744;8.958;2022-09-24T05:26:33;10.80;99.90
3202;DHT22;34843;48.744;8.958;2022-09-24T05:29:18;10.80;99.90
3202;DHT22;34843;48.744;8.958;2022-09-24T05:31:43;10.80;99.90
3202;DHT22;34843;48.744;8.958;2022-09-24T05:34:09;10.80;99.90
3202;DHT22;34843;48.744;8.958;2022-09-24T05:36:35;10.90;99.90
3202;DHT22;34843;48.744;8.958;2022-09-24T05:39:00;10.90;99.90
3202;DHT22;34843;48.744;8.958;2022-09-24T05:41:26;10.90;99.90
3202;DHT22;34843;48.744;8.958;2022-09-24T05:43:52;10.90;99.90
3202;DHT22;34843;48.744;8.958;2022-09-24T05:46:17;10.90;99.90
3202;DHT22;34843;48.744;8.958;2022-09-24T05:48:43;11.00;99.90
3202;DHT22;34843;48.744;8.958;2022-09-24T05:51:08;11.00;99.90
3202;DHT22;34843;48.744;8.958;2022-09-24T05:53:34;11.00;99.90
3202;DHT22;34843;48.744;8.958;2022-09-24T05:55:59;11.00;99.90
3202;DHT22;34843;48.744;8.958;2022-09-24T05:58:25;11.10;99.90
3202;DHT22;34843;48.744;8.958;2022-09-24T06:00:51;11.20;99.90
3202;DHT22;34843;48.744;8.958;2022-09-24T06:03:18;11.20;99.90
3202;DHT22;34843;48.744;8.958;2022-09-24T06:05:46;11.30;99.90
3202;DHT22;34843;48.744;8.958;2022-09-24T06:08:13;11.40;99.90
3202;DHT22;34843;48.744;8.958;2022-09-24T06:10:43;11.40;99.90
3202;DHT22;34843;48.744;8.958;2022-09-24T06:13:14;11.40;99.90
3202;DHT22;34843;48.744;8.958;2022-09-24T06:15:42;11.40;99.90
3202;DHT22;34843;48.744;8.958;2022-09-24T06:18:08;11.40;99.90
3202;DHT22;34843;48.744;8.958;2022-09-24T06:20:34;11.30;99.90
3202;DHT22;34843;48.744;8.958;2022-09-24T06:23:00;11.40;99.90
3202;DHT22;34843;48.744;8.958;2022-09-24T06:25:27;11.40;99.90
3202;DHT22;34843;48.744;8.958;2022-09-24T06:27:54;11.60;99.90
3202;DHT22;34843;48.744;8.958;2022-09-24T06:30:34;11.60;99.90
3202;DHT22;34843;48.744;8.958;2022-09-24T06:33:02;11.80;99.90
3202;DHT22;34843;48.744;8.958;2022-09-24T06:35:30;11.90;99.90
3202;DHT22;34843;48.744;8.958;2022-09-24T06:37:56;12.00;99.90
3202;DHT22;34843;48.744;8.958;2022-09-24T06:40:21;12.00;99.90
3202;DHT22;34843;48.744;8.958;2022-09-24T06:42:51;12.10;99.90
3202;DHT22;34843;48.744;8.958;2022-09-24T06:45:17;12.10;99.90
3202;DHT22;34843;48.744;8.958;2022-09-24T06:47:43;12.10;99.90
3202;DHT22;34843;48.744;8.958;2022-09-24T06:50:09;12.10;99.90
3202;DHT22;34843;48.744;8.958;2022-09-24T06:52:34;12.10;99.90
3202;DHT22;34843;48.744;8.958;2022-09-24T06:55:00;12.10;99.90
3202;DHT22;34843;48.744;8.958;2022-09-24T06:57:25;12.10;99.90
3202;DHT22;34843;48.744;8.958;2022-09-24T06:59:51;12.20;99.90
3202;DHT22;34843;48.744;8.958;2022-09-24T07:02:16;12.20;99.90
3202;DHT22;34843;48.744;8.958;2022-09-24T07:04:42;12.20;99.90
3202;DHT22;34843;48.744;8.958;2022-09-24T07:07:07;12.20;99.90
3202;DHT22;34843;48.744;8.958;2022-09-24T07:09:51;12.20;99.90
3202;DHT22;34843;48.744;8.958;2022-09-24T07:12:18;12.30;99.90
3202;DHT22;34843;48.744;8.958;2022-09-24T07:14:44;12.30;99.90
3202;DHT22;34843;48.744;8.958;2022-09-24T07:17:09;12.40;99.90
3202;DHT22;34843;48.744;8.958;2022-09-24T07:19:35;12.50;99.90
3202;DHT22;34843;48.744;8.958;2022-09-24T07:22:00;12.60;99.90
3202;DHT22;34843;48.744;8.958;2022-09-24T07:24:26;12.60;99.90
3202;DHT22;34843;48.744;8.958;2022-09-24T07:26:51;12.60;99.90
3202;DHT22;34843;48.744;8.958;2022-09-24T07:29:17;12.70;99.90
3202;DHT22;34843;48.744;8.958;2022-09-24T07:31:42;12.70;99.90
3202;DHT22;34843;48.744;8.958;2022-09-24T07:34:08;12.80;99.90
3202;DHT22;34843;48.744;8.958;2022-09-24T07:36:33;12.90;99.90
3202;DHT22;34843;48.744;8.958;2022-09-24T07:38:59;13.00;99.90
3202;DHT22;34843;48.744;8.958;2022-09-24T07:41:25;13.10;99.90
3202;DHT22;34843;48.744;8.958;2022-09-24T07:43:51;13.20;99.90
3202;DHT22;34843;48.744;8.958;2022-09-24T07:46:17;13.20;99.90
3202;DHT22;34843;48.744;8.958;2022-09-24T07:48:44;13.40;99.90
3202;DHT22;34843;48.744;8.958;2022-09-24T07:51:10;13.40;99.90
3202;DHT22;34843;48.744;8.958;2022-09-24T07:53:35;13.50;99.90
3202;DHT22;34843;48.744;8.958;2022-09-24T07:56:02;13.60;99.90
3202;DHT22;34843;48.744;8.958;2022-09-24T07:58:28;13.60;99.90
3202;DHT22;34843;48.744;8.958;2022-09-24T08:00:57;13.70;99.90
3202;DHT22;34843;48.744;8.958;2022-09-24T08:03:23;13.70;99.90
3202;DHT22;34843;48.744;8.958;2022-09-24T08:05:48;13.80;99.90
3202;DHT22;34843;48.744;8.958;2022-09-24T08:08:14;14.00;99.90
3202;DHT22;34843;48.744;8.958;2022-09-24T08:10:40;14.10;99.90
3202;DHT22;34843;48.744;8.958;2022-09-24T08:13:06;14.20;99.90
3202;DHT22;34843;48.744;8.958;2022-09-24T08:15:32;14.20;99.90
3202;DHT22;34843;48.744;8.958;2022-09-24T08:18:02;14.30;99.90
3202;DHT22;34843;48.744;8.958;2022-09-24T08:20:29;14.30;99.90
3202;DHT22;34843;48.744;8.958;2022-09-24T08:23:02;14.30;99.90
3202;DHT22;34843;48.744;8.958;2022-09-24T08:25:28;14.20;99.90
3202;DHT22;34843;48.744;8.958;2022-09-24T08:28:00;14.30;99.90
3202;DHT22;34843;48.744;8.958;2022-09-24T08:30:26;14.20;99.90
3202;DHT22;34843;48.744;8.958;2022-09-24T08:32:52;14.30;99.90
3202;DHT22;34843;48.744;8.958;2022-09-24T08:35:18;14.20;99.90
3202;DHT22;34843;48.744;8.958;2022-09-24T08:37:43;14.20;99.90
3202;DHT22;34843;48.744;8.958;2022-09-24T08:40:16;14.20;99.90
3202;DHT22;34843;48.744;8.958;2022-09-24T08:45:38;14.10;99.90
3202;DHT22;34843;48.744;8.958;2022-09-24T08:48:24;14.10;99.90
3202;DHT22;34843;48.744;8.958;2022-09-24T08:50:53;14.10;99.90
3202;DHT22;34843;48.744;8.958;2022-09-24T08:53:29;14.10;99.90
3202;DHT22;34843;48.744;8.958;2022-09-24T08:55:58;14.10;99.90
3202;DHT22;34843;48.744;8.958;2022-09-24T09:03:45;14.10;99.90
3202;DHT22;34843;48.744;8.958;2022-09-24T09:09:19;14.00;99.90
3202;DHT22;34843;48.744;8.958;2022-09-24T09:11:58;14.00;99.90
3202;DHT22;34843;48.744;8.958;2022-09-24T09:14:54;14.00;99.90
3202;DHT22;34843;48.744;8.958;2022-09-24T09:17:36;14.10;99.90
3202;DHT22;34843;48.744;8.958;2022-09-24T09:20:12;14.20;99.90
3202;DHT22;34843;48.744;8.958;2022-09-24T09:22:44;14.20;99.90
3202;DHT22;34843;48.744;8.958;2022-09-24T09:25:25;14.20;99.90
3202;DHT22;34843;48.744;8.958;2022-09-24T09:28:10;14.20;99.90
3202;DHT22;34843;48.744;8.958;2022-09-24T09:36:41;14.20;99.90
3202;DHT22;34843;48.744;8.958;2022-09-24T09:39:39;14.20;99.90
3202;DHT22;34843;48.744;8.958;2022-09-24T09:44:52;14.10;99.90
3202;DHT22;34843;48.744;8.958;2022-09-24T09:49:47;14.20;99.90
3202;DHT22;34843;48.744;8.958;2022-09-24T09:52:19;14.40;99.90
3202;DHT22;34843;48.744;8.958;2022-09-24T09:54:46;14.50;99.90
3202;DHT22;34843;48.744;8.958;2022-09-24T09:57:17;14.70;99.90
3202;DHT22;34843;48.744;8.958;2022-09-24T09:59:52;14.90;99.90
3202;DHT22;34843;48.744;8.958;2022-09-24T10:02:28;15.10;99.90
3202;DHT22;34843;48.744;8.958;2022-09-24T10:04:57;15.30;99.90
3202;DHT22;34843;48.744;8.958;2022-09-24T10:07:24;15.40;99.90
3202;DHT22;34843;48.744;8.958;2022-09-24T10:10:19;15.50;99.90
3202;DHT22;34843;48.744;8.958;2022-09-24T10:12:45;15.60;99.90
3202;DHT22;34843;48.744;8.958;2022-09-24T10:17:39;15.90;99.90
3202;DHT22;34843;48.744;8.958;2022-09-24T10:20:17;16.10;99.90
3202;DHT22;34843;48.744;8.958;2022-09-24T10:22:56;16.30;99.90
3202;DHT22;34843;48.744;8.958;2022-09-24T10:25:26;16.50;99.90
3202;DHT22;34843;48.744;8.958;2022-09-24T10:27:55;16.70;99.90
3202;DHT22;34843;48.744;8.958;2022-09-24T10:30:49;16.80;99.90
3202;DHT22;34843;48.744;8.958;2022-09-24T10:33:15;16.80;99.90
3202;DHT22;34843;48.744;8.958;2022-09-24T10:35:41;16.70;99.90
3202;DHT22;34843;48.744;8.958;2022-09-24T10:38:16;16.60;99.90
3202;DHT22;34843;48.744;8.958;2022-09-24T10:40:42;16.70;99.90
3202;DHT22;34843;48.744;8.958;2022-09-24T10:43:18;16.80;99.90
3202;DHT22;34843;48.744;8.958;2022-09-24T10:49:21;17.00;99.90
3202;DHT22;34843;48.744;8.958;2022-09-24T10:52:01;17.10;99.90
3202;DHT22;34843;48.744;8.958;2022-09-24T10:57:36;17.60;99.90
3202;DHT22;34843;48.744;8.958;2022-09-24T11:00:21;17.60;99.90
3202;DHT22;34843;48.744;8.958;2022-09-24T11:03:03;17.70;99.90
3202;DHT22;34843;48.744;8.958;2022-09-24T11:05:38;17.90;99.90
3202;DHT22;34843;48.744;8.958;2022-09-24T11:11:03;18.20;99.90
3202;DHT22;34843;48.744;8.958;2022-09-24T11:16:54;18.50;99.90
3202;DHT22;34843;48.744;8.958;2022-09-24T11:19:57;18.70;99.90
3202;DHT22;34843;48.744;8.958;2022-09-24T11:25:27;18.70;99.90
3202;DHT22;34843;48.744;8.958;2022-09-24T11:31:19;18.60;99.90
3202;DHT22;34843;48.744;8.958;2022-09-24T11:41:46;18.40;99.90
3202;DHT22;34843;48.744;8.958;2022-09-24T11:50:10;18.40;99.90
3202;DHT22;34843;48.744;8.958;2022-09-24T11:52:51;18.40;99.90
3202;DHT22;34843;48.744;8.958;2022-09-24T11:55:29;18.30;99.90
3202;DHT22;34843;48.744;8.958;2022-09-24T11:58:17;18.30;99.90
3202;DHT22;34843;48.744;8.958;2022-09-24T12:00:57;18.20;99.90
3202;DHT22;34843;48.744;8.958;2022-09-24T12:03:44;18.00;99.90
3202;DHT22;34843;48.744;8.958;2022-09-24T12:06:16;17.90;99.90
3202;DHT22;34843;48.744;8.958;2022-09-24T12:08:55;17.70;99.90
3202;DHT22;34843;48.744;8.958;2022-09-24T12:12:05;17.60;99.90
3202;DHT22;34843;48.744;8.958;2022-09-24T12:14:49;17.40;99.90
3202;DHT22;34843;48.744;8.958;2022-09-24T12:17:22;17.40;99.90
3202;DHT22;34843;48.744;8.958;2022-09-24T12:20:05;17.30;99.90
3202;DHT22;34843;48.744;8.958;2022-09-24T12:22:35;17.20;99.90
3202;DHT22;34843;48.744;8.958;2022-09-24T12:25:02;17.00;99.90
3202;DHT22;34843;48.744;8.958;2022-09-24T12:27:37;16.90;99.90
3202;DHT22;34843;48.744;8.958;2022-09-24T12:30:15;16.90;99.90
3202;DHT22;34843;48.744;8.958;2022-09-24T12:35:58;16.90;99.90
3202;DHT22;34843;48.744;8.958;2022-09-24T12:46:30;17.50;99.90
3202;DHT22;34843;48.744;8.958;2022-09-24T12:48:56;17.70;99.90
3202;DHT22;34843;48.744;8.958;2022-09-24T12:51:22;17.80;99.90
3202;DHT22;34843;48.744;8.958;2022-09-24T12:54:04;18.00;99.90
3202;DHT22;34843;48.744;8.958;2022-09-24T12:56:30;18.10;99.90
3202;DHT22;34843;48.744;8.958;2022-09-24T12:58:56;18.30;99.90
3202;DHT22;34843;48.744;8.958;2022-09-24T13:04:04;18.40;99.90
3202;DHT22;34843;48.744;8.958;2022-09-24T13:06:31;18.40;99.90
3202;DHT22;34843;48.744;8.958;2022-09-24T13:08:57;18.40;99.90
3202;DHT22;34843;48.744;8.958;2022-09-24T13:11:31;18.30;99.90
3202;DHT22;34843;48.744;8.958;2022-09-24T13:14:20;18.30;99.90
3202;DHT22;34843;48.744;8.958;2022-09-24T13:16:49;18.30;99.90
3202;DHT22;34843;48.744;8.958;2022-09-24T13:21:57;18.30;99.90
3202;DHT22;34843;48.744;8.958;2022-09-24T13:24:48;18.20;99.90
3202;DHT22;34843;48.744;8.958;2022-09-24T13:27:32;18.20;99.90
3202;DHT22;34843;48.744;8.958;2022-09-24T13:32:33;18.30;99.90
3202;DHT22;34843;48.744;8.958;2022-09-24T13:35:06;18.40;99.90
3202;DHT22;34843;48.744;8.958;2022-09-24T13:37:42;18.40;99.90
3202;DHT22;34843;48.744;8.958;2022-09-24T13:40:18;18.50;99.90
3202;DHT22;34843;48.744;8.958;2022-09-24T13:43:01;18.60;99.90
3202;DHT22;34843;48.744;8.958;2022-09-24T13:45:29;18.60;99.90
3202;DHT22;34843;48.744;8.958;2022-09-24T13:48:02;18.60;99.90
3202;DHT22;34843;48.744;8.958;2022-09-24T13:50:41;18.80;99.90
3202;DHT22;34843;48.744;8.958;2022-09-24T13:53:21;18.90;99.90
3202;DHT22;34843;48.744;8.958;2022-09-24T13:56:03;19.00;99.90
3202;DHT22;34843;48.744;8.958;2022-09-24T14:01:02;19.00;99.90
3202;DHT22;34843;48.744;8.958;2022-09-24T14:03:32;19.10;99.90
3202;DHT22;34843;48.744;8.958;2022-09-24T14:05:59;19.10;99.90
3202;DHT22;34843;48.744;8.958;2022-09-24T14:08:26;19.10;99.90
3202;DHT22;34843;48.744;8.958;2022-09-24T14:11:12;19.00;99.90
3202;DHT22;34843;48.744;8.958;2022-09-24T14:13:39;19.00;99.90
3202;DHT22;34843;48.744;8.958;2022-09-24T14:16:30;19.00;99.90
3202;DHT22;34843;48.744;8.958;2022-09-24T14:19:03;19.00;99.90
3202;DHT22;34843;48.744;8.958;2022-09-24T14:21:34;19.00;99.90
3202;DHT22;34843;48.744;8.958;2022-09-24T14:24:06;19.00;99.90
3202;DHT22;34843;48.744;8.958;2022-09-24T14:26:37;18.80;99.90
3202;DHT22;34843;48.744;8.958;2022-09-24T14:29:11;18.80;99.90
3202;DHT22;34843;48.744;8.958;2022-09-24T14:31:43;18.80;99.90
3202;DHT22;34843;48.744;8.958;2022-09-24T14:34:26;18.80;99.90
3202;DHT22;34843;48.744;8.958;2022-09-24T14:36:55;18.70;99.90
3202;DHT22;34843;48.744;8.958;2022-09-24T14:39:27;18.60;99.90
3202;DHT22;34843;48.744;8.958;2022-09-24T14:41:56;18.60;99.90
3202;DHT22;34843;48.744;8.958;2022-09-24T14:44:26;18.60;99.90
3202;DHT22;34843;48.744;8.958;2022-09-24T14:46:58;18.60;99.90
3202;DHT22;34843;48.744;8.958;2022-09-24T14:49:26;18.40;99.90
3202;DHT22;34843;48.744;8.958;2022-09-24T14:51:58;18.30;99.90
3202;DHT22;34843;48.744;8.958;2022-09-24T14:54:35;18.20;99.90
3202;DHT22;34843;48.744;8.958;2022-09-24T14:59:37;18.20;99.90
3202;DHT22;34843;48.744;8.958;2022-09-24T15:02:24;18.10;99.90
3202;DHT22;34843;48.744;8.958;2022-09-24T15:04:57;18.00;99.90
3202;DHT22;34843;48.744;8.958;2022-09-24T15:07:24;18.00;99.90
3202;DHT22;34843;48.744;8.958;2022-09-24T15:09:53;18.10;99.90
3202;DHT22;34843;48.744;8.958;2022-09-24T15:12:23;18.10;99.90
3202;DHT22;34843;48.744;8.958;2022-09-24T15:14:57;18.10;99.90
3202;DHT22;34843;48.744;8.958;2022-09-24T15:17:27;17.90;99.90
3202;DHT22;34843;48.744;8.958;2022-09-24T15:19:54;17.70;99.90
3202;DHT22;34843;48.744;8.958;2022-09-24T15:22:22;17.50;99.90
3202;DHT22;34843;48.744;8.958;2022-09-24T15:24:49;17.50;99.90
3202;DHT22;34843;48.744;8.958;2022-09-24T15:27:21;17.40;99.90
3202;DHT22;34843;48.744;8.958;2022-09-24T15:29:47;17.20;99.90
3202;DHT22;34843;48.744;8.958;2022-09-24T15:32:18;17.10;99.90
3202;DHT22;34843;48.744;8.958;2022-09-24T15:34:44;17.00;99.90
3202;DHT22;34843;48.744;8.958;2022-09-24T15:37:20;16.90;99.90
3202;DHT22;34843;48.744;8.958;2022-09-24T15:39:47;16.80;99.90
3202;DHT22;34843;48.744;8.958;2022-09-24T15:42:21;16.80;99.90
3202;DHT22;34843;48.744;8.958;2022-09-24T15:44:47;16.80;99.90
3202;DHT22;34843;48.744;8.958;2022-09-24T15:47:15;16.90;99.90
3202;DHT22;34843;48.744;8.958;2022-09-24T15:49:41;16.90;99.90
3202;DHT22;34843;48.744;8.958;2022-09-24T15:52:12;16.80;99.90
3202;DHT22;34843;48.744;8.958;2022-09-24T15:54:38;16.80;99.90
3202;DHT22;34843;48.744;8.958;2022-09-24T15:57:04;16.80;99.90
3202;DHT22;34843;48.744;8.958;2022-09-24T15:59:30;16.90;99.90
3202;DHT22;34843;48.744;8.958;2022-09-24T16:01:59;16.90;99.90
3202;DHT22;34843;48.744;8.958;2022-09-24T16:04:25;16.90;99.90
3202;DHT22;34843;48.744;8.958;2022-09-24T16:06:51;16.80;99.90
3202;DHT22;34843;48.744;8.958;2022-09-24T16:09:16;16.80;99.90
3202;DHT22;34843;48.744;8.958;2022-09-24T16:11:42;16.70;99.90
3202;DHT22;34843;48.744;8.958;2022-09-24T16:14:08;16.70;99.90
3202;DHT22;34843;48.744;8.958;2022-09-24T16:16:36;16.60;99.90
3202;DHT22;34843;48.744;8.958;2022-09-24T16:19:02;16.60;99.90
3202;DHT22;34843;48.744;8.958;2022-09-24T16:21:27;16.50;99.90
3202;DHT22;34843;48.744;8.958;2022-09-24T16:23:54;16.40;99.90
3202;DHT22;34843;48.744;8.958;2022-09-24T16:26:19;16.30;99.90
3202;DHT22;34843;48.744;8.958;2022-09-24T16:28:45;16.20;99.90
3202;DHT22;34843;48.744;8.958;2022-09-24T16:31:11;16.10;99.90
3202;DHT22;34843;48.744;8.958;2022-09-24T16:33:37;16.00;99.90
3202;DHT22;34843;48.744;8.958;2022-09-24T16:36:05;16.00;99.90
3202;DHT22;34843;48.744;8.958;2022-09-24T16:38:33;15.90;99.90
3202;DHT22;34843;48.744;8.958;2022-09-24T16:40:59;15.90;99.90
3202;DHT22;34843;48.744;8.958;2022-09-24T16:43:25;15.80;99.90
3202;DHT22;34843;48.744;8.958;2022-09-24T16:45:50;15.80;99.90
3202;DHT22;34843;48.744;8.958;2022-09-24T16:48:16;15.80;99.90
3202;DHT22;34843;48.744;8.958;2022-09-24T16:50:41;15.80;99.90
3202;DHT22;34843;48.744;8.958;2022-09-24T16:53:07;15.70;99.90
3202;DHT22;34843;48.744;8.958;2022-09-24T16:55:32;15.70;99.90
3202;DHT22;34843;48.744;8.958;2022-09-24T16:57:58;15.70;99.90
3202;DHT22;34843;48.744;8.958;2022-09-24T17:00:24;15.60;99.90
3202;DHT22;34843;48.744;8.958;2022-09-24T17:02:50;15.60;99.90
3202;DHT22;34843;48.744;8.958;2022-09-24T17:05:15;15.50;99.90
3202;DHT22;34843;48.744;8.958;2022-09-24T17:07:41;15.50;99.90
3202;DHT22;34843;48.744;8.958;2022-09-24T17:10:09;15.40;99.90
3202;DHT22;34843;48.744;8.958;2022-09-24T17:12:41;15.40;99.90
3202;DHT22;34843;48.744;8.958;2022-09-24T17:15:07;15.30;99.90
3202;DHT22;34843;48.744;8.958;2022-09-24T17:17:33;15.20;99.90
3202;DHT22;34843;48.744;8.958;2022-09-24T17:19:59;15.20;99.90
3202;DHT22;34843;48.744;8.958;2022-09-24T17:22:24;15.10;99.90
3202;DHT22;34843;48.744;8.958;2022-09-24T17:24:50;15.10;99.90
3202;DHT22;34843;48.744;8.958;2022-09-24T17:27:17;15.10;99.90
3202;DHT22;34843;48.744;8.958;2022-09-24T17:29:42;15.10;99.90
3202;DHT22;34843;48.744;8.958;2022-09-24T17:32:08;15.10;99.90
3202;DHT22;34843;48.744;8.958;2022-09-24T17:34:33;15.10;99.90
3202;DHT22;34843;48.744;8.958;2022-09-24T17:36:59;15.10;99.90
3202;DHT22;34843;48.744;8.958;2022-09-24T17:39:24;15.00;99.90